sensor_id;sensor_type;location;lat;lon;timestamp;P1;durP1;ratioP1;P2;durP2;ratioP2
45420;SDS011;55462;47.042;8.292;2023-04-25T00:02:23;3.85;;;1.80;;
45420;SDS011;55462;47.042;8.292;2023-04-25T00:04:49;3.58;;;1.80;;
45420;SDS011;55462;47.042;8.292;2023-04-25T00:07:15;4.07;;;1.80;;
45420;SDS011;55462;47.042;8.292;2023-04-25T00:09:41;4.15;;;1.95;;
45420;SDS011;55462;47.042;8.292;2023-04-25T00:12:06;6.05;;;2.00;;
45420;SDS011;55462;47.042;8.292;2023-04-25T00:14:32;4.18;;;1.80;;
45420;SDS011;55462;47.042;8.292;2023-04-25T00:16:59;4.68;;;2.20;;
45420;SDS011;55462;47.042;8.292;2023-04-25T00:19:24;6.28;;;2.03;;
45420;SDS011;55462;47.042;8.292;2023-04-25T00:21:51;4.72;;;2.20;;
45420;SDS011;55462;47.042;8.292;2023-04-25T00:24:18;2.40;;;1.80;;
45420;SDS011;55462;47.042;8.292;2023-04-25T00:26:44;6.78;;;2.20;;
45420;SDS011;55462;47.042;8.292;2023-04-25T00:29:09;5.82;;;1.67;;
45420;SDS011;55462;47.042;8.292;2023-04-25T00:31:35;6.32;;;2.13;;
45420;SDS011;55462;47.042;8.292;2023-04-25T00:34:00;3.75;;;1.90;;
45420;SDS011;55462;47.042;8.292;2023-04-25T00:36:25;4.85;;;1.95;;
45420;SDS011;55462;47.042;8.292;2023-04-25T00:38:51;4.85;;;1.90;;
45420;SDS011;55462;47.042;8.292;2023-04-25T00:41:18;5.15;;;1.90;;
45420;SDS011;55462;47.042;8.292;2023-04-25T00:43:43;3.53;;;2.13;;
45420;SDS011;55462;47.042;8.292;2023-04-25T00:46:09;3.83;;;2.20;;
45420;SDS011;55462;47.042;8.292;2023-04-25T00:48:34;2.70;;;1.83;;
45420;SDS011;55462;47.042;8.292;2023-04-25T00:51:00;4.75;;;1.80;;
45420;SDS011;55462;47.042;8.292;2023-04-25T00:53:26;4.03;;;1.90;;
45420;SDS011;55462;47.042;8.292;2023-04-25T00:55:53;5.72;;;1.85;;
45420;SDS011;55462;47.042;8.292;2023-04-25T00:58:19;3.05;;;1.73;;
45420;SDS011;55462;47.042;8.292;2023-04-25T01:00:46;2.20;;;1.83;;
45420;SDS011;55462;47.042;8.292;2023-04-25T01:03:12;2.70;;;1.70;;
45420;SDS011;55462;47.042;8.292;2023-04-25T01:05:39;3.72;;;1.70;;
45420;SDS011;55462;47.042;8.292;2023-04-25T01:08:05;4.30;;;1.90;;
45420;SDS011;55462;47.042;8.292;2023-04-25T01:10:31;5.43;;;1.80;;
45420;SDS011;55462;47.042;8.292;2023-04-25T01:12:56;2.20;;;1.92;;
45420;SDS011;55462;47.042;8.292;2023-04-25T01:15:21;3.35;;;1.85;;
45420;SDS011;55462;47.042;8.292;2023-04-25T01:17:47;4.18;;;2.00;;
45420;SDS011;55462;47.042;8.292;2023-04-25T01:20:14;3.58;;;1.90;;
45420;SDS011;55462;47.042;8.292;2023-04-25T01:22:40;2.03;;;1.83;;
45420;SDS011;55462;47.042;8.292;2023-04-25T01:25:05;3.08;;;2.10;;
45420;SDS011;55462;47.042;8.292;2023-04-25T01:27:32;4.95;;;1.83;;
45420;SDS011;55462;47.042;8.292;2023-04-25T01:29:57;4.35;;;1.70;;
45420;SDS011;55462;47.042;8.292;2023-04-25T01:32:23;6.45;;;2.20;;
45420;SDS011;55462;47.042;8.292;2023-04-25T01:34:48;4.45;;;2.03;;
45420;SDS011;55462;47.042;8.292;2023-04-25T01:37:14;4.38;;;1.92;;
45420;SDS011;55462;47.042;8.292;2023-04-25T01:39:39;6.80;;;1.95;;
45420;SDS011;55462;47.042;8.292;2023-04-25T01:42:05;3.15;;;1.83;;
45420;SDS011;55462;47.042;8.292;2023-04-25T01:44:31;5.43;;;1.98;;
45420;SDS011;55462;47.042;8.292;2023-04-25T01:46:56;4.45;;;1.90;;
45420;SDS011;55462;47.042;8.292;2023-04-25T01:49:21;3.83;;;2.17;;
45420;SDS011;55462;47.042;8.292;2023-04-25T01:51:47;3.90;;;2.10;;
45420;SDS011;55462;47.042;8.292;2023-04-25T01:54:12;2.63;;;1.67;;
45420;SDS011;55462;47.042;8.292;2023-04-25T01:56:38;3.40;;;2.08;;
45420;SDS011;55462;47.042;8.292;2023-04-25T01:59:04;4.60;;;1.92;;
45420;SDS011;55462;47.042;8.292;2023-04-25T02:01:30;3.83;;;1.80;;
45420;SDS011;55462;47.042;8.292;2023-04-25T02:03:56;5.78;;;1.70;;
45420;SDS011;55462;47.042;8.292;2023-04-25T02:06:21;3.67;;;1.63;;
45420;SDS011;55462;47.042;8.292;2023-04-25T02:08:46;2.05;;;1.67;;
45420;SDS011;55462;47.042;8.292;2023-04-25T02:11:12;2.63;;;1.52;;
45420;SDS011;55462;47.042;8.292;2023-04-25T02:13:37;4.63;;;1.50;;
45420;SDS011;55462;47.042;8.292;2023-04-25T02:16:02;3.70;;;1.50;;
45420;SDS011;55462;47.042;8.292;2023-04-25T02:18:28;2.25;;;1.63;;
45420;SDS011;55462;47.042;8.292;2023-04-25T02:20:53;2.83;;;2.00;;
45420;SDS011;55462;47.042;8.292;2023-04-25T02:23:19;3.67;;;1.98;;
45420;SDS011;55462;47.042;8.292;2023-04-25T02:25:44;6.30;;;1.92;;
45420;SDS011;55462;47.042;8.292;2023-04-25T02:28:10;4.43;;;2.08;;
45420;SDS011;55462;47.042;8.292;2023-04-25T02:30:35;2.45;;;1.58;;
45420;SDS011;55462;47.042;8.292;2023-04-25T02:33:00;1.83;;;1.40;;
45420;SDS011;55462;47.042;8.292;2023-04-25T02:35:26;6.10;;;2.00;;
45420;SDS011;55462;47.042;8.292;2023-04-25T02:37:52;5.10;;;2.00;;
45420;SDS011;55462;47.042;8.292;2023-04-25T02:40:17;2.75;;;1.75;;
45420;SDS011;55462;47.042;8.292;2023-04-25T02:42:42;5.25;;;1.60;;
45420;SDS011;55462;47.042;8.292;2023-04-25T02:45:10;3.58;;;1.58;;
45420;SDS011;55462;47.042;8.292;2023-04-25T02:47:36;4.75;;;2.00;;
45420;SDS011;55462;47.042;8.292;2023-04-25T02:50:01;6.32;;;2.15;;
45420;SDS011;55462;47.042;8.292;2023-04-25T02:52:26;4.63;;;2.20;;
45420;SDS011;55462;47.042;8.292;2023-04-25T02:54:52;5.63;;;2.10;;
45420;SDS011;55462;47.042;8.292;2023-04-25T02:57:17;2.65;;;1.65;;
45420;SDS011;55462;47.042;8.292;2023-04-25T02:59:42;2.17;;;1.60;;
45420;SDS011;55462;47.042;8.292;2023-04-25T03:02:08;5.20;;;1.88;;
45420;SDS011;55462;47.042;8.292;2023-04-25T03:04:33;4.00;;;2.33;;
45420;SDS011;55462;47.042;8.292;2023-04-25T03:06:58;2.80;;;2.00;;
45420;SDS011;55462;47.042;8.292;2023-04-25T03:09:24;3.45;;;1.98;;
45420;SDS011;55462;47.042;8.292;2023-04-25T03:11:49;3.80;;;1.73;;
45420;SDS011;55462;47.042;8.292;2023-04-25T03:14:14;3.92;;;1.77;;
45420;SDS011;55462;47.042;8.292;2023-04-25T03:16:40;4.72;;;2.03;;
45420;SDS011;55462;47.042;8.292;2023-04-25T03:19:05;7.47;;;2.13;;
45420;SDS011;55462;47.042;8.292;2023-04-25T03:21:31;6.63;;;1.80;;
45420;SDS011;55462;47.042;8.292;2023-04-25T03:23:57;3.30;;;2.10;;
45420;SDS011;55462;47.042;8.292;2023-04-25T03:26:23;2.85;;;1.70;;
45420;SDS011;55462;47.042;8.292;2023-04-25T03:28:48;3.08;;;1.85;;
45420;SDS011;55462;47.042;8.292;2023-04-25T03:31:14;4.53;;;1.90;;
45420;SDS011;55462;47.042;8.292;2023-04-25T03:33:39;2.28;;;1.38;;
45420;SDS011;55462;47.042;8.292;2023-04-25T03:36:05;2.60;;;1.38;;
45420;SDS011;55462;47.042;8.292;2023-04-25T03:38:30;2.95;;;2.05;;
45420;SDS011;55462;47.042;8.292;2023-04-25T03:40:56;3.47;;;1.73;;
45420;SDS011;55462;47.042;8.292;2023-04-25T03:43:21;3.63;;;1.98;;
45420;SDS011;55462;47.042;8.292;2023-04-25T03:45:46;3.67;;;1.77;;
45420;SDS011;55462;47.042;8.292;2023-04-25T03:48:12;1.52;;;1.40;;
45420;SDS011;55462;47.042;8.292;2023-04-25T03:50:37;3.75;;;1.63;;
45420;SDS011;55462;47.042;8.292;2023-04-25T03:53:02;3.50;;;1.80;;
45420;SDS011;55462;47.042;8.292;2023-04-25T03:55:28;2.88;;;1.30;;
45420;SDS011;55462;47.042;8.292;2023-04-25T03:57:53;2.15;;;1.80;;
45420;SDS011;55462;47.042;8.292;2023-04-25T04:00:18;2.92;;;1.38;;
45420;SDS011;55462;47.042;8.292;2023-04-25T04:02:44;3.13;;;1.80;;
45420;SDS011;55462;47.042;8.292;2023-04-25T04:05:09;2.72;;;1.75;;
45420;SDS011;55462;47.042;8.292;2023-04-25T04:07:35;3.30;;;1.67;;
45420;SDS011;55462;47.042;8.292;2023-04-25T04:10:05;2.58;;;1.65;;
45420;SDS011;55462;47.042;8.292;2023-04-25T04:12:34;6.55;;;2.00;;
45420;SDS011;55462;47.042;8.292;2023-04-25T04:15:00;1.73;;;1.52;;
45420;SDS011;55462;47.042;8.292;2023-04-25T04:17:26;4.03;;;1.70;;
45420;SDS011;55462;47.042;8.292;2023-04-25T04:19:52;2.47;;;1.55;;
45420;SDS011;55462;47.042;8.292;2023-04-25T04:22:17;3.10;;;1.77;;
45420;SDS011;55462;47.042;8.292;2023-04-25T04:24:44;4.35;;;2.10;;
45420;SDS011;55462;47.042;8.292;2023-04-25T04:27:11;5.03;;;1.88;;
45420;SDS011;55462;47.042;8.292;2023-04-25T04:29:37;2.75;;;1.73;;
45420;SDS011;55462;47.042;8.292;2023-04-25T04:32:02;2.90;;;1.90;;
45420;SDS011;55462;47.042;8.292;2023-04-25T04:34:28;4.68;;;1.88;;
45420;SDS011;55462;47.042;8.292;2023-04-25T04:36:53;2.80;;;1.50;;
45420;SDS011;55462;47.042;8.292;2023-04-25T04:39:19;2.45;;;1.70;;
45420;SDS011;55462;47.042;8.292;2023-04-25T04:41:45;2.10;;;1.90;;
45420;SDS011;55462;47.042;8.292;2023-04-25T04:44:11;3.58;;;2.15;;
45420;SDS011;55462;47.042;8.292;2023-04-25T04:46:37;2.67;;;1.63;;
45420;SDS011;55462;47.042;8.292;2023-04-25T04:49:06;2.15;;;1.60;;
45420;SDS011;55462;47.042;8.292;2023-04-25T04:51:35;3.58;;;1.70;;
45420;SDS011;55462;47.042;8.292;2023-04-25T04:54:01;2.75;;;1.45;;
45420;SDS011;55462;47.042;8.292;2023-04-25T04:56:28;1.88;;;1.50;;
45420;SDS011;55462;47.042;8.292;2023-04-25T04:58:57;3.88;;;1.60;;
45420;SDS011;55462;47.042;8.292;2023-04-25T05:01:22;5.68;;;1.95;;
45420;SDS011;55462;47.042;8.292;2023-04-25T05:03:48;1.50;;;1.40;;
45420;SDS011;55462;47.042;8.292;2023-04-25T05:06:13;2.15;;;1.40;;
45420;SDS011;55462;47.042;8.292;2023-04-25T05:08:39;2.08;;;1.33;;
45420;SDS011;55462;47.042;8.292;2023-04-25T05:11:04;1.20;;;1.10;;
45420;SDS011;55462;47.042;8.292;2023-04-25T05:13:30;1.90;;;1.60;;
45420;SDS011;55462;47.042;8.292;2023-04-25T05:15:55;2.67;;;1.40;;
45420;SDS011;55462;47.042;8.292;2023-04-25T05:18:20;1.48;;;1.33;;
45420;SDS011;55462;47.042;8.292;2023-04-25T05:20:46;1.23;;;1.13;;
45420;SDS011;55462;47.042;8.292;2023-04-25T05:23:11;1.17;;;1.08;;
45420;SDS011;55462;47.042;8.292;2023-04-25T05:25:36;1.55;;;1.23;;
45420;SDS011;55462;47.042;8.292;2023-04-25T05:28:02;1.88;;;1.48;;
45420;SDS011;55462;47.042;8.292;2023-04-25T05:30:27;2.03;;;1.23;;
45420;SDS011;55462;47.042;8.292;2023-04-25T05:32:52;2.00;;;1.30;;
45420;SDS011;55462;47.042;8.292;2023-04-25T05:35:18;4.35;;;1.73;;
45420;SDS011;55462;47.042;8.292;2023-04-25T05:37:43;1.17;;;1.13;;
45420;SDS011;55462;47.042;8.292;2023-04-25T05:40:08;1.80;;;1.55;;
45420;SDS011;55462;47.042;8.292;2023-04-25T05:42:34;2.10;;;1.35;;
45420;SDS011;55462;47.042;8.292;2023-04-25T05:44:59;3.58;;;1.30;;
45420;SDS011;55462;47.042;8.292;2023-04-25T05:47:25;1.98;;;1.42;;
45420;SDS011;55462;47.042;8.292;2023-04-25T05:49:51;1.90;;;1.42;;
45420;SDS011;55462;47.042;8.292;2023-04-25T05:52:16;2.05;;;1.52;;
45420;SDS011;55462;47.042;8.292;2023-04-25T05:54:41;4.32;;;1.40;;
45420;SDS011;55462;47.042;8.292;2023-04-25T05:57:07;1.98;;;1.35;;
45420;SDS011;55462;47.042;8.292;2023-04-25T05:59:32;1.88;;;1.48;;
45420;SDS011;55462;47.042;8.292;2023-04-25T06:01:57;2.20;;;1.60;;
45420;SDS011;55462;47.042;8.292;2023-04-25T06:04:23;3.13;;;2.00;;
45420;SDS011;55462;47.042;8.292;2023-04-25T06:06:48;2.58;;;1.33;;
45420;SDS011;55462;47.042;8.292;2023-04-25T06:09:13;1.52;;;1.20;;
45420;SDS011;55462;47.042;8.292;2023-04-25T06:11:39;3.03;;;1.50;;
45420;SDS011;55462;47.042;8.292;2023-04-25T06:14:05;1.80;;;1.55;;
45420;SDS011;55462;47.042;8.292;2023-04-25T06:16:31;1.40;;;1.30;;
45420;SDS011;55462;47.042;8.292;2023-04-25T06:18:56;2.80;;;1.48;;
45420;SDS011;55462;47.042;8.292;2023-04-25T06:21:21;1.60;;;1.33;;
45420;SDS011;55462;47.042;8.292;2023-04-25T06:23:47;1.42;;;1.25;;
45420;SDS011;55462;47.042;8.292;2023-04-25T06:26:12;2.92;;;1.40;;
45420;SDS011;55462;47.042;8.292;2023-04-25T06:28:37;1.42;;;1.33;;
45420;SDS011;55462;47.042;8.292;2023-04-25T06:31:03;1.70;;;1.33;;
45420;SDS011;55462;47.042;8.292;2023-04-25T06:33:28;2.17;;;1.50;;
45420;SDS011;55462;47.042;8.292;2023-04-25T06:35:53;2.22;;;1.40;;
45420;SDS011;55462;47.042;8.292;2023-04-25T06:38:19;1.30;;;1.20;;
45420;SDS011;55462;47.042;8.292;2023-04-25T06:40:44;2.08;;;1.48;;
45420;SDS011;55462;47.042;8.292;2023-04-25T06:43:09;1.95;;;1.70;;
45420;SDS011;55462;47.042;8.292;2023-04-25T06:45:35;2.25;;;1.60;;
45420;SDS011;55462;47.042;8.292;2023-04-25T06:48:00;1.83;;;1.60;;
45420;SDS011;55462;47.042;8.292;2023-04-25T06:50:25;3.03;;;1.90;;
45420;SDS011;55462;47.042;8.292;2023-04-25T06:52:51;3.17;;;1.63;;
45420;SDS011;55462;47.042;8.292;2023-04-25T06:55:16;3.72;;;1.63;;
45420;SDS011;55462;47.042;8.292;2023-04-25T06:57:41;2.53;;;1.60;;
45420;SDS011;55462;47.042;8.292;2023-04-25T07:00:07;3.83;;;2.00;;
45420;SDS011;55462;47.042;8.292;2023-04-25T07:02:36;3.17;;;1.90;;
45420;SDS011;55462;47.042;8.292;2023-04-25T07:05:02;2.47;;;1.67;;
45420;SDS011;55462;47.042;8.292;2023-04-25T07:07:29;4.40;;;1.65;;
45420;SDS011;55462;47.042;8.292;2023-04-25T07:09:55;5.32;;;1.83;;
45420;SDS011;55462;47.042;8.292;2023-04-25T07:12:20;2.08;;;1.70;;
45420;SDS011;55462;47.042;8.292;2023-04-25T07:14:45;2.78;;;2.05;;
45420;SDS011;55462;47.042;8.292;2023-04-25T07:17:11;3.53;;;2.03;;
45420;SDS011;55462;47.042;8.292;2023-04-25T07:19:36;5.70;;;1.65;;
45420;SDS011;55462;47.042;8.292;2023-04-25T07:22:03;3.17;;;1.63;;
45420;SDS011;55462;47.042;8.292;2023-04-25T07:24:29;1.70;;;1.60;;
45420;SDS011;55462;47.042;8.292;2023-04-25T07:26:54;1.60;;;1.50;;
45420;SDS011;55462;47.042;8.292;2023-04-25T07:29:19;3.08;;;1.52;;
45420;SDS011;55462;47.042;8.292;2023-04-25T07:31:45;1.55;;;1.45;;
45420;SDS011;55462;47.042;8.292;2023-04-25T07:34:10;1.20;;;1.10;;
45420;SDS011;55462;47.042;8.292;2023-04-25T07:36:35;2.17;;;1.50;;
45420;SDS011;55462;47.042;8.292;2023-04-25T07:39:01;1.63;;;1.47;;
45420;SDS011;55462;47.042;8.292;2023-04-25T07:41:26;1.58;;;1.45;;
45420;SDS011;55462;47.042;8.292;2023-04-25T07:43:51;1.60;;;1.50;;
45420;SDS011;55462;47.042;8.292;2023-04-25T07:46:16;2.73;;;1.40;;
45420;SDS011;55462;47.042;8.292;2023-04-25T07:48:42;1.77;;;1.65;;
45420;SDS011;55462;47.042;8.292;2023-04-25T07:51:07;3.53;;;1.87;;
45420;SDS011;55462;47.042;8.292;2023-04-25T07:53:32;1.95;;;1.48;;
45420;SDS011;55462;47.042;8.292;2023-04-25T07:55:59;1.92;;;1.75;;
45420;SDS011;55462;47.042;8.292;2023-04-25T07:58:25;2.07;;;1.87;;
45420;SDS011;55462;47.042;8.292;2023-04-25T08:00:50;1.80;;;1.50;;
45420;SDS011;55462;47.042;8.292;2023-04-25T08:03:15;2.38;;;1.92;;
45420;SDS011;55462;47.042;8.292;2023-04-25T08:05:41;1.60;;;1.50;;
45420;SDS011;55462;47.042;8.292;2023-04-25T08:08:06;2.08;;;1.65;;
45420;SDS011;55462;47.042;8.292;2023-04-25T08:10:32;2.67;;;1.73;;
45420;SDS011;55462;47.042;8.292;2023-04-25T08:12:58;7.07;;;1.80;;
45420;SDS011;55462;47.042;8.292;2023-04-25T08:15:24;2.78;;;2.08;;
45420;SDS011;55462;47.042;8.292;2023-04-25T08:17:50;3.05;;;2.08;;
45420;SDS011;55462;47.042;8.292;2023-04-25T08:20:15;2.30;;;2.10;;
45420;SDS011;55462;47.042;8.292;2023-04-25T08:22:40;2.97;;;2.40;;
45420;SDS011;55462;47.042;8.292;2023-04-25T08:25:06;2.28;;;2.10;;
45420;SDS011;55462;47.042;8.292;2023-04-25T08:27:32;3.15;;;1.92;;
45420;SDS011;55462;47.042;8.292;2023-04-25T08:29:57;2.38;;;2.00;;
45420;SDS011;55462;47.042;8.292;2023-04-25T08:32:23;3.13;;;2.00;;
45420;SDS011;55462;47.042;8.292;2023-04-25T08:34:49;4.72;;;2.03;;
45420;SDS011;55462;47.042;8.292;2023-04-25T08:37:14;2.45;;;2.25;;
45420;SDS011;55462;47.042;8.292;2023-04-25T08:39:39;2.70;;;1.90;;
45420;SDS011;55462;47.042;8.292;2023-04-25T08:42:05;2.13;;;1.92;;
45420;SDS011;55462;47.042;8.292;2023-04-25T08:44:34;3.72;;;1.92;;
45420;SDS011;55462;47.042;8.292;2023-04-25T08:47:01;3.42;;;2.22;;
45420;SDS011;55462;47.042;8.292;2023-04-25T08:49:27;1.35;;;1.35;;
45420;SDS011;55462;47.042;8.292;2023-04-25T08:51:53;1.80;;;1.35;;
45420;SDS011;55462;47.042;8.292;2023-04-25T08:54:21;1.70;;;1.60;;
45420;SDS011;55462;47.042;8.292;2023-04-25T08:56:50;2.30;;;1.70;;
45420;SDS011;55462;47.042;8.292;2023-04-25T08:59:16;1.40;;;1.30;;
45420;SDS011;55462;47.042;8.292;2023-04-25T09:01:42;1.77;;;1.48;;
45420;SDS011;55462;47.042;8.292;2023-04-25T09:04:07;2.65;;;1.73;;
45420;SDS011;55462;47.042;8.292;2023-04-25T09:06:33;1.58;;;1.48;;
45420;SDS011;55462;47.042;8.292;2023-04-25T09:09:03;2.97;;;1.40;;
45420;SDS011;55462;47.042;8.292;2023-04-25T09:11:30;1.77;;;1.50;;
45420;SDS011;55462;47.042;8.292;2023-04-25T09:19:29;1.45;;;1.35;;
45420;SDS011;55462;47.042;8.292;2023-04-25T09:22:03;1.30;;;1.30;;
45420;SDS011;55462;47.042;8.292;2023-04-25T09:24:33;1.33;;;1.25;;
45420;SDS011;55462;47.042;8.292;2023-04-25T09:27:02;2.08;;;1.38;;
45420;SDS011;55462;47.042;8.292;2023-04-25T09:29:32;1.65;;;1.25;;
45420;SDS011;55462;47.042;8.292;2023-04-25T09:34:41;2.38;;;1.30;;
45420;SDS011;55462;47.042;8.292;2023-04-25T09:37:10;1.15;;;1.15;;
45420;SDS011;55462;47.042;8.292;2023-04-25T09:39:36;1.60;;;1.33;;
45420;SDS011;55462;47.042;8.292;2023-04-25T09:42:02;1.40;;;1.30;;
45420;SDS011;55462;47.042;8.292;2023-04-25T09:44:28;1.70;;;1.60;;
45420;SDS011;55462;47.042;8.292;2023-04-25T09:46:53;1.55;;;1.45;;
45420;SDS011;55462;47.042;8.292;2023-04-25T09:49:19;3.83;;;1.40;;
45420;SDS011;55462;47.042;8.292;2023-04-25T09:51:55;2.50;;;1.60;;
45420;SDS011;55462;47.042;8.292;2023-04-25T09:54:21;1.70;;;1.20;;
45420;SDS011;55462;47.042;8.292;2023-04-25T09:56:47;1.88;;;1.48;;
45420;SDS011;55462;47.042;8.292;2023-04-25T09:59:13;2.42;;;1.27;;
45420;SDS011;55462;47.042;8.292;2023-04-25T10:01:39;1.55;;;1.40;;
45420;SDS011;55462;47.042;8.292;2023-04-25T10:04:06;6.15;;;1.70;;
45420;SDS011;55462;47.042;8.292;2023-04-25T10:06:35;3.53;;;1.48;;
45420;SDS011;55462;47.042;8.292;2023-04-25T10:09:02;2.67;;;1.55;;
45420;SDS011;55462;47.042;8.292;2023-04-25T10:11:28;2.25;;;1.63;;
45420;SDS011;55462;47.042;8.292;2023-04-25T10:13:55;1.60;;;1.52;;
45420;SDS011;55462;47.042;8.292;2023-04-25T10:16:21;2.55;;;1.75;;
45420;SDS011;55462;47.042;8.292;2023-04-25T10:18:46;4.20;;;1.50;;
45420;SDS011;55462;47.042;8.292;2023-04-25T10:21:11;1.98;;;1.45;;
45420;SDS011;55462;47.042;8.292;2023-04-25T10:23:37;2.25;;;1.65;;
45420;SDS011;55462;47.042;8.292;2023-04-25T10:26:03;1.63;;;1.52;;
45420;SDS011;55462;47.042;8.292;2023-04-25T10:28:28;1.85;;;1.52;;
45420;SDS011;55462;47.042;8.292;2023-04-25T10:31:01;1.50;;;1.40;;
45420;SDS011;55462;47.042;8.292;2023-04-25T10:36:11;1.50;;;1.40;;
45420;SDS011;55462;47.042;8.292;2023-04-25T10:38:43;1.92;;;1.83;;
45420;SDS011;55462;47.042;8.292;2023-04-25T10:41:09;2.35;;;1.45;;
45420;SDS011;55462;47.042;8.292;2023-04-25T10:46:15;1.90;;;1.80;;
45420;SDS011;55462;47.042;8.292;2023-04-25T10:48:45;2.15;;;1.80;;
45420;SDS011;55462;47.042;8.292;2023-04-25T10:51:17;2.53;;;2.05;;
45420;SDS011;55462;47.042;8.292;2023-04-25T10:53:43;1.58;;;1.48;;
45420;SDS011;55462;47.042;8.292;2023-04-25T10:56:16;1.42;;;1.30;;
45420;SDS011;55462;47.042;8.292;2023-04-25T10:58:43;1.30;;;1.20;;
45420;SDS011;55462;47.042;8.292;2023-04-25T11:01:09;1.30;;;1.30;;
45420;SDS011;55462;47.042;8.292;2023-04-25T11:03:40;1.20;;;1.20;;
45420;SDS011;55462;47.042;8.292;2023-04-25T11:06:07;2.13;;;1.42;;
45420;SDS011;55462;47.042;8.292;2023-04-25T11:08:56;1.20;;;1.20;;
45420;SDS011;55462;47.042;8.292;2023-04-25T11:11:22;1.30;;;1.15;;
45420;SDS011;55462;47.042;8.292;2023-04-25T11:13:48;1.40;;;1.30;;
45420;SDS011;55462;47.042;8.292;2023-04-25T11:16:14;0.77;;;0.77;;
45420;SDS011;55462;47.042;8.292;2023-04-25T11:18:43;0.60;;;0.60;;
45420;SDS011;55462;47.042;8.292;2023-04-25T11:21:09;0.60;;;0.60;;
45420;SDS011;55462;47.042;8.292;2023-04-25T11:23:34;0.70;;;0.70;;
45420;SDS011;55462;47.042;8.292;2023-04-25T11:26:00;0.67;;;0.60;;
45420;SDS011;55462;47.042;8.292;2023-04-25T11:28:26;0.70;;;0.70;;
45420;SDS011;55462;47.042;8.292;2023-04-25T11:30:51;0.60;;;0.60;;
45420;SDS011;55462;47.042;8.292;2023-04-25T11:33:17;1.88;;;1.17;;
45420;SDS011;55462;47.042;8.292;2023-04-25T11:35:42;0.90;;;0.50;;
45420;SDS011;55462;47.042;8.292;2023-04-25T11:38:08;0.60;;;0.60;;
45420;SDS011;55462;47.042;8.292;2023-04-25T11:40:34;1.63;;;1.15;;
45420;SDS011;55462;47.042;8.292;2023-04-25T11:43:00;1.25;;;1.08;;
45420;SDS011;55462;47.042;8.292;2023-04-25T11:45:26;1.33;;;1.23;;
45420;SDS011;55462;47.042;8.292;2023-04-25T11:47:52;1.45;;;1.20;;
45420;SDS011;55462;47.042;8.292;2023-04-25T11:50:17;1.90;;;1.27;;
45420;SDS011;55462;47.042;8.292;2023-04-25T11:52:44;1.20;;;1.10;;
45420;SDS011;55462;47.042;8.292;2023-04-25T11:55:14;1.10;;;1.00;;
45420;SDS011;55462;47.042;8.292;2023-04-25T11:57:41;1.38;;;1.15;;
45420;SDS011;55462;47.042;8.292;2023-04-25T12:00:17;0.85;;;0.85;;
45420;SDS011;55462;47.042;8.292;2023-04-25T12:02:44;2.30;;;0.93;;
45420;SDS011;55462;47.042;8.292;2023-04-25T12:05:16;3.47;;;1.00;;
45420;SDS011;55462;47.042;8.292;2023-04-25T12:07:42;0.80;;;0.80;;
45420;SDS011;55462;47.042;8.292;2023-04-25T12:10:08;0.98;;;0.95;;
45420;SDS011;55462;47.042;8.292;2023-04-25T12:12:38;1.48;;;1.00;;
45420;SDS011;55462;47.042;8.292;2023-04-25T12:15:16;1.85;;;1.20;;
45420;SDS011;55462;47.042;8.292;2023-04-25T12:17:49;0.73;;;0.73;;
45420;SDS011;55462;47.042;8.292;2023-04-25T12:20:17;1.13;;;1.02;;
45420;SDS011;55462;47.042;8.292;2023-04-25T12:22:51;1.60;;;1.00;;
45420;SDS011;55462;47.042;8.292;2023-04-25T12:28:21;0.88;;;0.88;;
45420;SDS011;55462;47.042;8.292;2023-04-25T12:30:59;0.90;;;0.90;;
45420;SDS011;55462;47.042;8.292;2023-04-25T12:33:37;0.80;;;0.80;;
45420;SDS011;55462;47.042;8.292;2023-04-25T12:36:04;1.55;;;0.95;;
45420;SDS011;55462;47.042;8.292;2023-04-25T12:38:38;1.50;;;0.90;;
45420;SDS011;55462;47.042;8.292;2023-04-25T12:41:04;1.60;;;1.10;;
45420;SDS011;55462;47.042;8.292;2023-04-25T12:43:30;0.68;;;0.68;;
45420;SDS011;55462;47.042;8.292;2023-04-25T12:45:55;0.77;;;0.77;;
45420;SDS011;55462;47.042;8.292;2023-04-25T12:48:21;1.85;;;1.00;;
45420;SDS011;55462;47.042;8.292;2023-04-25T12:50:47;1.58;;;0.82;;
45420;SDS011;55462;47.042;8.292;2023-04-25T12:53:14;0.70;;;0.70;;
45420;SDS011;55462;47.042;8.292;2023-04-25T12:55:40;0.90;;;0.90;;
45420;SDS011;55462;47.042;8.292;2023-04-25T12:58:05;1.30;;;1.20;;
45420;SDS011;55462;47.042;8.292;2023-04-25T13:00:30;1.10;;;1.10;;
45420;SDS011;55462;47.042;8.292;2023-04-25T13:02:56;1.48;;;1.00;;
45420;SDS011;55462;47.042;8.292;2023-04-25T13:05:22;1.10;;;1.10;;
45420;SDS011;55462;47.042;8.292;2023-04-25T13:07:47;0.90;;;0.90;;
45420;SDS011;55462;47.042;8.292;2023-04-25T13:10:12;0.80;;;0.80;;
45420;SDS011;55462;47.042;8.292;2023-04-25T13:12:38;2.78;;;0.98;;
45420;SDS011;55462;47.042;8.292;2023-04-25T13:15:03;0.95;;;0.90;;
45420;SDS011;55462;47.042;8.292;2023-04-25T13:17:29;1.30;;;1.20;;
45420;SDS011;55462;47.042;8.292;2023-04-25T13:19:54;1.10;;;1.00;;
45420;SDS011;55462;47.042;8.292;2023-04-25T13:22:20;0.70;;;0.70;;
45420;SDS011;55462;47.042;8.292;2023-04-25T13:24:45;0.63;;;0.63;;
45420;SDS011;55462;47.042;8.292;2023-04-25T13:27:11;1.25;;;1.00;;
45420;SDS011;55462;47.042;8.292;2023-04-25T13:29:37;1.27;;;0.90;;
45420;SDS011;55462;47.042;8.292;2023-04-25T13:32:03;0.90;;;0.90;;
45420;SDS011;55462;47.042;8.292;2023-04-25T13:34:29;0.85;;;0.70;;
45420;SDS011;55462;47.042;8.292;2023-04-25T13:36:55;0.80;;;0.80;;
45420;SDS011;55462;47.042;8.292;2023-04-25T13:39:21;1.00;;;1.00;;
45420;SDS011;55462;47.042;8.292;2023-04-25T13:41:46;1.30;;;1.20;;
45420;SDS011;55462;47.042;8.292;2023-04-25T13:44:11;3.22;;;0.90;;
45420;SDS011;55462;47.042;8.292;2023-04-25T13:46:37;6.43;;;1.10;;
45420;SDS011;55462;47.042;8.292;2023-04-25T13:49:02;1.00;;;1.00;;
45420;SDS011;55462;47.042;8.292;2023-04-25T13:51:28;1.63;;;1.05;;
45420;SDS011;55462;47.042;8.292;2023-04-25T13:53:54;4.75;;;1.40;;
45420;SDS011;55462;47.042;8.292;2023-04-25T13:56:19;1.20;;;1.10;;
45420;SDS011;55462;47.042;8.292;2023-04-25T13:58:45;1.00;;;0.90;;
45420;SDS011;55462;47.042;8.292;2023-04-25T14:01:10;0.88;;;0.80;;
45420;SDS011;55462;47.042;8.292;2023-04-25T14:03:35;1.02;;;0.90;;
45420;SDS011;55462;47.042;8.292;2023-04-25T14:06:01;1.98;;;1.05;;
45420;SDS011;55462;47.042;8.292;2023-04-25T14:08:26;0.70;;;0.70;;
45420;SDS011;55462;47.042;8.292;2023-04-25T14:10:52;0.57;;;0.57;;
45420;SDS011;55462;47.042;8.292;2023-04-25T14:13:17;0.63;;;0.63;;
45420;SDS011;55462;47.042;8.292;2023-04-25T14:15:42;0.52;;;0.52;;
45420;SDS011;55462;47.042;8.292;2023-04-25T14:18:08;0.90;;;0.60;;
45420;SDS011;55462;47.042;8.292;2023-04-25T14:20:33;0.60;;;0.60;;
45420;SDS011;55462;47.042;8.292;2023-04-25T14:22:59;0.57;;;0.57;;
45420;SDS011;55462;47.042;8.292;2023-04-25T14:25:24;0.60;;;0.60;;
45420;SDS011;55462;47.042;8.292;2023-04-25T14:27:50;0.68;;;0.68;;
45420;SDS011;55462;47.042;8.292;2023-04-25T14:30:16;2.08;;;0.80;;
45420;SDS011;55462;47.042;8.292;2023-04-25T14:32:42;1.38;;;0.70;;
45420;SDS011;55462;47.042;8.292;2023-04-25T14:35:08;0.60;;;0.60;;
45420;SDS011;55462;47.042;8.292;2023-04-25T14:37:34;1.00;;;0.95;;
45420;SDS011;55462;47.042;8.292;2023-04-25T14:39:59;0.63;;;0.63;;
45420;SDS011;55462;47.042;8.292;2023-04-25T14:42:24;0.80;;;0.80;;
45420;SDS011;55462;47.042;8.292;2023-04-25T14:44:50;1.30;;;0.93;;
45420;SDS011;55462;47.042;8.292;2023-04-25T14:47:16;0.77;;;0.77;;
45420;SDS011;55462;47.042;8.292;2023-04-25T14:49:41;0.60;;;0.60;;
45420;SDS011;55462;47.042;8.292;2023-04-25T14:52:06;0.70;;;0.70;;
45420;SDS011;55462;47.042;8.292;2023-04-25T14:54:32;0.70;;;0.70;;
45420;SDS011;55462;47.042;8.292;2023-04-25T14:56:58;0.73;;;0.70;;
45420;SDS011;55462;47.042;8.292;2023-04-25T14:59:23;0.50;;;0.50;;